createdAt,value
2019-03-29T00:00:19.965Z,1.90
2019-03-29T00:02:48.291Z,2.00
2019-03-29T00:05:17.158Z,2.00
2019-03-29T00:07:45.463Z,2.00
2019-03-29T00:10:13.792Z,2.00
2019-03-29T00:12:42.057Z,1.90
2019-03-29T00:15:10.541Z,1.90
2019-03-29T00:17:38.992Z,1.80
2019-03-29T00:20:07.636Z,1.90
2019-03-29T00:22:36.104Z,2.00
2019-03-29T00:25:04.663Z,2.10
2019-03-29T00:27:32.917Z,2.10
2019-03-29T00:30:01.388Z,2.00
2019-03-29T00:32:29.783Z,1.90
2019-03-29T00:34:58.473Z,1.90
2019-03-29T00:37:29.604Z,1.90
2019-03-29T00:39:57.948Z,1.90
2019-03-29T00:42:26.269Z,2.00
2019-03-29T00:44:54.649Z,2.00
2019-03-29T00:47:22.992Z,1.90
2019-03-29T00:49:51.333Z,1.90
2019-03-29T00:52:19.840Z,1.90
2019-03-29T00:54:48.463Z,1.90
2019-03-29T00:57:16.717Z,1.90
2019-03-29T00:59:45.237Z,2.00
2019-03-29T01:02:13.674Z,2.10
2019-03-29T01:04:42.047Z,2.20
2019-03-29T01:07:10.655Z,2.00
2019-03-29T01:09:39.063Z,1.90
2019-03-29T01:12:07.428Z,1.80
2019-03-29T01:14:35.893Z,1.60
2019-03-29T01:17:04.432Z,1.50
2019-03-29T01:19:32.728Z,1.50
2019-03-29T01:22:01.004Z,1.40
2019-03-29T01:24:29.643Z,1.40
2019-03-29T01:26:57.967Z,1.30
2019-03-29T01:29:26.605Z,1.30
2019-03-29T01:31:54.918Z,1.20
2019-03-29T01:34:23.251Z,1.20
2019-03-29T01:36:51.591Z,1.20
2019-03-29T01:39:19.843Z,1.30
2019-03-29T01:41:48.383Z,1.30
2019-03-29T01:44:16.839Z,1.20
2019-03-29T01:46:45.104Z,1.20
2019-03-29T01:49:15.885Z,1.20
2019-03-29T01:51:45.179Z,1.20
2019-03-29T01:54:13.486Z,1.30
2019-03-29T01:56:41.914Z,1.20
2019-03-29T01:59:10.196Z,1.20
2019-03-29T02:01:38.579Z,1.20
2019-03-29T02:04:08.057Z,1.20
2019-03-29T02:06:36.112Z,1.10
2019-03-29T02:09:05.378Z,1.20
2019-03-29T02:11:33.686Z,1.20
2019-03-29T02:14:02.012Z,1.20
2019-03-29T02:16:30.299Z,1.20
2019-03-29T02:18:58.899Z,1.20
2019-03-29T02:21:27.300Z,1.20
2019-03-29T02:23:56.989Z,1.20
2019-03-29T02:26:24.892Z,1.30
2019-03-29T02:28:53.507Z,1.30
2019-03-29T02:31:25.641Z,1.30
2019-03-29T02:33:51.851Z,1.40
2019-03-29T02:36:20.835Z,1.40
2019-03-29T02:38:55.746Z,1.40
2019-03-29T02:41:22.202Z,1.40
2019-03-29T02:43:50.591Z,1.40
2019-03-29T02:46:19.104Z,1.30
2019-03-29T02:48:47.535Z,1.20
2019-03-29T02:51:15.875Z,1.10
2019-03-29T02:53:44.938Z,1.00
2019-03-29T02:56:13.269Z,1.00
2019-03-29T02:58:42.207Z,0.90
2019-03-29T03:01:10.516Z,0.80
2019-03-29T03:03:38.795Z,0.80
2019-03-29T03:06:07.314Z,0.80
2019-03-29T03:08:35.746Z,0.90
2019-03-29T03:11:04.253Z,0.80
2019-03-29T03:13:32.626Z,0.80
2019-03-29T03:16:01.215Z,0.80
2019-03-29T03:18:29.615Z,0.80
2019-03-29T03:20:58.279Z,0.70
2019-03-29T03:23:26.546Z,0.70
2019-03-29T03:25:55.232Z,0.70
2019-03-29T03:28:23.830Z,0.60
2019-03-29T03:30:52.276Z,0.60
2019-03-29T03:33:20.658Z,0.60
2019-03-29T03:35:49.094Z,0.60
2019-03-29T03:38:17.430Z,0.60
2019-03-29T03:40:45.714Z,0.60
2019-03-29T03:43:13.985Z,0.60
2019-03-29T03:45:42.290Z,0.60
2019-03-29T03:48:10.796Z,0.60
2019-03-29T03:50:42.410Z,0.60
2019-03-29T03:53:10.810Z,0.50
2019-03-29T03:55:40.523Z,0.50
2019-03-29T03:58:10.073Z,0.40
2019-03-29T04:00:55.093Z,0.40
2019-03-29T04:03:23.940Z,0.40
2019-03-29T04:05:52.498Z,0.30
2019-03-29T04:08:20.934Z,0.30
2019-03-29T04:10:49.228Z,0.30
2019-03-29T04:13:17.580Z,0.20
2019-03-29T04:15:45.966Z,0.30
2019-03-29T04:18:16.104Z,0.20
2019-03-29T04:20:44.968Z,0.20
2019-03-29T04:23:13.392Z,0.20
2019-03-29T04:25:41.702Z,0.20
2019-03-29T04:28:10.193Z,0.20
2019-03-29T04:30:38.500Z,0.20
2019-03-29T04:33:10.820Z,0.30
2019-03-29T04:35:37.188Z,0.30
2019-03-29T04:38:05.727Z,0.50
2019-03-29T04:40:34.370Z,0.60
2019-03-29T04:43:04.559Z,0.70
2019-03-29T04:45:35.063Z,0.70
2019-03-29T04:48:03.682Z,0.70
2019-03-29T04:50:32.022Z,0.80
2019-03-29T04:53:00.448Z,0.90
2019-03-29T04:55:29.076Z,1.10
2019-03-29T04:57:58.437Z,1.20
2019-03-29T05:00:29.708Z,1.40
2019-03-29T05:02:58.149Z,1.60
2019-03-29T05:05:26.781Z,1.90
2019-03-29T05:07:55.156Z,2.20
2019-03-29T05:10:23.859Z,2.40
2019-03-29T05:12:52.194Z,2.70
2019-03-29T05:15:20.654Z,3.00
2019-03-29T05:17:48.880Z,3.30
2019-03-29T05:20:18.035Z,3.40
2019-03-29T05:22:47.223Z,3.50
2019-03-29T05:25:15.961Z,3.60
2019-03-29T05:27:44.331Z,3.70
2019-03-29T05:30:12.821Z,3.90
2019-03-29T05:32:41.510Z,3.90
2019-03-29T05:35:09.937Z,4.00
2019-03-29T05:37:38.492Z,4.10
2019-03-29T05:40:07.028Z,4.30
2019-03-29T05:42:35.614Z,4.30
2019-03-29T05:45:08.321Z,4.20
2019-03-29T05:47:36.809Z,4.10
2019-03-29T05:50:07.127Z,4.20
2019-03-29T05:52:35.576Z,4.50
2019-03-29T05:55:05.870Z,4.60
2019-03-29T05:57:34.442Z,4.50
2019-03-29T06:00:06.634Z,4.50
2019-03-29T06:02:35.070Z,4.40
2019-03-29T06:05:04.223Z,4.40
2019-03-29T06:07:32.661Z,4.40
2019-03-29T06:10:01.229Z,4.60
2019-03-29T06:12:31.708Z,4.70
2019-03-29T06:15:00.381Z,5.40
2019-03-29T06:17:28.828Z,6.50
2019-03-29T06:19:57.370Z,7.70
2019-03-29T06:22:25.943Z,8.60
2019-03-29T06:24:54.609Z,9.50
2019-03-29T06:27:23.113Z,10.20
2019-03-29T06:29:52.079Z,10.70
2019-03-29T06:32:20.657Z,11.30
2019-03-29T06:34:49.048Z,11.70
2019-03-29T06:37:17.832Z,11.80
2019-03-29T06:39:46.645Z,11.90
2019-03-29T06:42:15.135Z,12.00
2019-03-29T06:44:44.484Z,12.50
2019-03-29T06:47:14.860Z,13.20
2019-03-29T06:49:46.996Z,14.00
2019-03-29T06:52:15.548Z,14.60
2019-03-29T06:54:44.220Z,14.90
2019-03-29T06:57:12.832Z,15.30
2019-03-29T06:59:42.997Z,15.90
2019-03-29T07:02:15.195Z,16.30
2019-03-29T07:04:43.743Z,16.30
2019-03-29T07:07:12.369Z,16.50
2019-03-29T07:09:40.872Z,16.50
2019-03-29T07:12:09.519Z,17.00
2019-03-29T07:14:39.733Z,17.50
2019-03-29T07:17:10.281Z,17.30
2019-03-29T07:19:38.394Z,17.20
2019-03-29T07:22:06.837Z,18.20
2019-03-29T07:24:37.017Z,18.60
2019-03-29T07:27:07.065Z,18.90
2019-03-29T07:29:35.124Z,18.60
2019-03-29T07:32:03.681Z,18.70
2019-03-29T07:34:32.369Z,18.70
2019-03-29T07:37:00.836Z,18.80
2019-03-29T07:39:29.398Z,18.80
2019-03-29T07:41:58.012Z,19.00
2019-03-29T07:44:27.028Z,18.90
2019-03-29T07:46:55.464Z,19.80
2019-03-29T07:49:43.144Z,19.90
2019-03-29T07:52:08.894Z,19.90
2019-03-29T07:54:37.381Z,20.60
2019-03-29T07:57:05.673Z,20.60
2019-03-29T07:59:34.066Z,20.00
2019-03-29T08:02:02.800Z,19.70
2019-03-29T08:04:32.422Z,20.10
2019-03-29T08:07:00.815Z,20.60
2019-03-29T08:09:29.460Z,21.30
2019-03-29T08:11:57.928Z,21.60
2019-03-29T08:14:28.446Z,21.40
2019-03-29T08:16:56.937Z,21.20
2019-03-29T08:19:25.260Z,21.80
2019-03-29T08:21:53.704Z,21.60
2019-03-29T08:24:22.088Z,20.90
2019-03-29T08:26:50.704Z,21.60
2019-03-29T08:29:19.315Z,21.50
2019-03-29T08:31:47.711Z,21.30
2019-03-29T08:34:16.388Z,21.20
2019-03-29T08:36:44.896Z,20.90
2019-03-29T08:39:26.995Z,21.50
2019-03-29T08:41:43.868Z,22.00
2019-03-29T08:44:12.467Z,21.90
2019-03-29T08:46:41.084Z,21.90
2019-03-29T08:49:09.944Z,20.90
2019-03-29T08:51:41.270Z,22.00
2019-03-29T08:54:08.529Z,23.10
2019-03-29T08:56:36.848Z,24.40
2019-03-29T08:59:05.137Z,25.40
2019-03-29T09:01:33.595Z,25.00
2019-03-29T09:04:05.700Z,25.70
2019-03-29T09:06:33.061Z,25.10
2019-03-29T09:09:02.301Z,26.00
2019-03-29T09:11:30.659Z,26.40
2019-03-29T09:13:59.051Z,27.60
2019-03-29T09:16:27.445Z,26.90
2019-03-29T09:18:56.222Z,26.80
2019-03-29T09:21:24.710Z,26.40
2019-03-29T09:23:53.113Z,25.40
2019-03-29T09:26:21.466Z,24.80
2019-03-29T09:28:49.740Z,24.50
2019-03-29T09:31:18.063Z,22.80
2019-03-29T09:33:46.381Z,20.60
2019-03-29T09:36:14.872Z,19.60
2019-03-29T09:38:43.836Z,19.00
2019-03-29T09:41:12.346Z,19.60
2019-03-29T09:43:43.645Z,20.40
2019-03-29T09:46:12.013Z,19.10
2019-03-29T09:48:40.657Z,17.90
2019-03-29T09:51:08.966Z,17.00
2019-03-29T09:53:40.832Z,16.30
2019-03-29T09:56:06.685Z,16.20
2019-03-29T09:58:35.188Z,16.00
2019-03-29T10:01:03.697Z,15.80
2019-03-29T10:03:32.071Z,15.20
2019-03-29T10:06:00.464Z,14.90
2019-03-29T10:08:28.998Z,14.50
2019-03-29T10:10:57.307Z,14.40
2019-03-29T10:13:25.743Z,13.90
2019-03-29T10:15:54.223Z,14.90
2019-03-29T10:18:22.603Z,17.50
2019-03-29T10:20:51.065Z,19.60
2019-03-29T10:23:19.442Z,20.90
2019-03-29T10:25:47.714Z,21.50
2019-03-29T10:28:22.257Z,22.50
2019-03-29T10:30:52.301Z,22.20
2019-03-29T10:33:20.186Z,23.10
2019-03-29T10:35:52.926Z,24.80
2019-03-29T10:38:19.041Z,24.20
2019-03-29T10:40:48.350Z,23.20
2019-03-29T10:43:16.848Z,22.00
2019-03-29T10:45:45.368Z,20.10
2019-03-29T10:48:13.718Z,19.00
2019-03-29T10:50:43.785Z,18.40
2019-03-29T10:53:12.955Z,17.50
2019-03-29T10:55:41.445Z,17.20
2019-03-29T10:58:10.184Z,16.90
2019-03-29T11:00:39.864Z,17.00
2019-03-29T11:03:08.378Z,17.10
2019-03-29T11:05:36.851Z,17.80
2019-03-29T11:08:05.202Z,19.10
2019-03-29T11:10:38.519Z,19.40
2019-03-29T11:13:13.410Z,18.50
2019-03-29T11:15:36.260Z,17.90
2019-03-29T11:18:05.345Z,16.90
2019-03-29T11:20:33.729Z,16.90
2019-03-29T11:23:02.388Z,17.90
2019-03-29T11:25:30.841Z,19.30
2019-03-29T11:28:00.988Z,20.40
2019-03-29T11:30:41.551Z,21.70
2019-03-29T11:32:58.599Z,22.10
2019-03-29T11:35:27.087Z,22.20
2019-03-29T11:37:55.728Z,22.20
2019-03-29T11:40:24.198Z,22.20
2019-03-29T11:42:52.635Z,22.40
2019-03-29T11:45:20.972Z,21.80
2019-03-29T11:47:49.315Z,20.00
2019-03-29T11:50:17.609Z,19.00
2019-03-29T11:52:49.166Z,18.60
2019-03-29T11:55:23.261Z,18.00
2019-03-29T11:57:55.596Z,17.70
2019-03-29T12:00:28.367Z,18.20
2019-03-29T12:02:56.754Z,18.40
2019-03-29T12:05:25.060Z,18.90
2019-03-29T12:07:53.558Z,18.90
2019-03-29T12:10:22.018Z,18.60
2019-03-29T12:12:50.303Z,17.80
2019-03-29T12:15:18.948Z,17.20
2019-03-29T12:17:47.567Z,17.20
2019-03-29T12:20:15.987Z,17.30
2019-03-29T12:22:44.569Z,17.60
2019-03-29T12:25:13.650Z,17.80
2019-03-29T12:27:42.072Z,17.60
2019-03-29T12:30:10.529Z,16.90
2019-03-29T12:32:39.007Z,16.50
2019-03-29T12:35:09.970Z,16.20
2019-03-29T12:37:37.750Z,16.40
2019-03-29T12:40:07.864Z,16.30
2019-03-29T12:42:35.500Z,16.50
2019-03-29T12:45:05.509Z,17.00
2019-03-29T12:47:33.178Z,17.30
2019-03-29T12:50:01.523Z,17.10
2019-03-29T12:52:30.014Z,16.50
2019-03-29T12:54:58.404Z,16.20
2019-03-29T12:57:26.863Z,15.70
2019-03-29T12:59:55.342Z,15.50
2019-03-29T13:02:23.748Z,15.20
2019-03-29T13:04:52.100Z,15.40
2019-03-29T13:07:20.737Z,15.40
2019-03-29T13:09:49.199Z,15.50
2019-03-29T13:12:17.882Z,15.40
2019-03-29T13:14:46.175Z,15.20
2019-03-29T13:17:14.703Z,15.20
2019-03-29T13:19:43.239Z,15.00
2019-03-29T13:22:12.204Z,14.60
2019-03-29T13:24:40.466Z,14.70
2019-03-29T13:27:08.764Z,14.70
2019-03-29T13:29:37.385Z,14.50
2019-03-29T13:32:06.134Z,14.50
2019-03-29T13:34:34.612Z,14.50
2019-03-29T13:37:03.454Z,14.40
2019-03-29T13:39:31.892Z,14.50
2019-03-29T13:42:00.695Z,14.40
2019-03-29T13:44:29.426Z,14.30
2019-03-29T13:46:57.727Z,14.30
2019-03-29T13:49:26.008Z,14.40
2019-03-29T13:51:54.678Z,14.10
2019-03-29T13:54:23.185Z,14.10
2019-03-29T13:56:51.718Z,14.00
2019-03-29T13:59:20.175Z,14.00
2019-03-29T14:01:48.775Z,14.00
2019-03-29T14:04:17.140Z,14.00
2019-03-29T14:06:45.490Z,13.80
2019-03-29T14:09:13.834Z,13.60
2019-03-29T14:11:42.237Z,13.70
2019-03-29T14:14:10.724Z,13.70
2019-03-29T14:16:39.188Z,13.50
2019-03-29T14:19:07.853Z,13.40
2019-03-29T14:21:36.395Z,13.40
2019-03-29T14:24:05.068Z,13.40
2019-03-29T14:26:33.524Z,13.50
2019-03-29T14:29:02.005Z,13.50
2019-03-29T14:31:30.561Z,13.50
2019-03-29T14:33:59.019Z,13.60
2019-03-29T14:36:27.560Z,13.50
2019-03-29T14:38:55.816Z,13.40
2019-03-29T14:41:24.088Z,13.40
2019-03-29T14:43:52.541Z,13.40
2019-03-29T14:46:21.037Z,13.40
2019-03-29T14:48:49.333Z,13.30
2019-03-29T14:51:19.539Z,13.30
2019-03-29T14:53:47.334Z,13.30
2019-03-29T14:56:15.866Z,13.20
2019-03-29T14:58:44.322Z,13.20
2019-03-29T15:01:12.759Z,13.10
2019-03-29T15:03:41.151Z,12.90
2019-03-29T15:06:09.695Z,12.90
2019-03-29T15:08:38.173Z,12.90
2019-03-29T15:11:21.281Z,12.80
2019-03-29T15:13:38.264Z,12.70
2019-03-29T15:16:06.520Z,12.50
2019-03-29T15:18:35.015Z,12.40
2019-03-29T15:21:03.389Z,12.30
2019-03-29T15:23:31.918Z,12.20
2019-03-29T15:26:00.237Z,12.20
2019-03-29T15:28:28.584Z,12.10
2019-03-29T15:30:56.849Z,12.10
2019-03-29T15:33:25.391Z,12.00
2019-03-29T15:35:53.803Z,12.00
2019-03-29T15:38:22.249Z,11.90
2019-03-29T15:40:50.721Z,11.90
2019-03-29T15:43:19.423Z,12.00
2019-03-29T15:45:47.948Z,11.90
2019-03-29T15:48:16.586Z,11.90
2019-03-29T15:50:45.059Z,11.90
2019-03-29T15:53:13.558Z,11.70
2019-03-29T15:55:42.032Z,11.60
2019-03-29T15:58:10.389Z,11.60
2019-03-29T16:00:38.878Z,11.60
2019-03-29T16:03:07.675Z,11.50
2019-03-29T16:05:36.094Z,11.50
2019-03-29T16:08:04.583Z,11.40
2019-03-29T16:10:32.967Z,11.30
2019-03-29T16:13:14.811Z,11.30
2019-03-29T16:15:43.395Z,11.30
2019-03-29T16:18:11.735Z,11.30
2019-03-29T16:20:40.897Z,11.20
2019-03-29T16:23:09.319Z,11.20
2019-03-29T16:25:37.651Z,11.10
2019-03-29T16:28:06.123Z,11.00
2019-03-29T16:30:34.438Z,11.00
2019-03-29T16:33:02.798Z,10.90
2019-03-29T16:35:31.393Z,10.80
2019-03-29T16:37:59.801Z,10.80
2019-03-29T16:40:30.878Z,10.70
2019-03-29T16:42:58.546Z,10.60
2019-03-29T16:45:27.313Z,10.50
2019-03-29T16:47:55.940Z,10.40
2019-03-29T16:50:24.562Z,10.30
2019-03-29T16:52:53.227Z,10.30
2019-03-29T16:55:23.100Z,10.10
2019-03-29T16:57:51.426Z,10.00
2019-03-29T17:00:19.968Z,9.90
2019-03-29T17:02:52.104Z,9.80
2019-03-29T17:05:24.659Z,9.60
2019-03-29T17:07:53.167Z,9.40
2019-03-29T17:10:21.549Z,9.20
2019-03-29T17:12:53.126Z,9.00
2019-03-29T17:15:22.199Z,8.90
2019-03-29T17:17:54.060Z,8.70
2019-03-29T17:20:22.605Z,8.60
2019-03-29T17:22:52.451Z,8.50
2019-03-29T17:25:22.513Z,8.40
2019-03-29T17:27:53.843Z,8.30
2019-03-29T17:30:37.506Z,8.20
2019-03-29T17:33:05.912Z,8.00
2019-03-29T17:35:39.940Z,7.80
2019-03-29T17:38:08.522Z,7.70
2019-03-29T17:40:37.014Z,7.60
2019-03-29T17:43:05.652Z,7.40
2019-03-29T17:45:34.472Z,7.40
2019-03-29T17:48:03.153Z,7.30
2019-03-29T17:50:43.696Z,7.30
2019-03-29T17:53:12.056Z,7.20
2019-03-29T17:55:40.472Z,7.10
2019-03-29T17:58:09.004Z,7.00
2019-03-29T18:00:55.567Z,6.90
2019-03-29T18:03:24.284Z,6.90
2019-03-29T18:05:55.206Z,6.90
2019-03-29T18:08:26.850Z,7.00
2019-03-29T18:10:55.358Z,6.90
2019-03-29T18:13:33.476Z,6.80
2019-03-29T18:16:01.969Z,6.80
2019-03-29T18:18:30.472Z,6.70
2019-03-29T18:20:58.909Z,6.80
2019-03-29T18:23:27.392Z,6.80
2019-03-29T18:25:55.808Z,6.80
2019-03-29T18:28:24.234Z,6.80
2019-03-29T18:30:52.683Z,6.80
2019-03-29T18:33:26.562Z,6.80
2019-03-29T18:35:55.966Z,6.80
2019-03-29T18:38:24.619Z,6.80
2019-03-29T18:41:02.007Z,6.90
2019-03-29T18:43:30.420Z,6.80
2019-03-29T18:45:58.759Z,6.90
2019-03-29T18:48:29.163Z,6.90
2019-03-29T18:50:57.588Z,6.90
2019-03-29T18:53:27.076Z,6.90
2019-03-29T18:55:55.266Z,6.90
2019-03-29T18:58:28.402Z,6.90
2019-03-29T19:00:57.048Z,6.90
2019-03-29T19:03:25.369Z,6.90
2019-03-29T19:05:53.914Z,6.80
2019-03-29T19:08:22.258Z,6.80
2019-03-29T19:10:50.580Z,6.70
2019-03-29T19:13:19.080Z,6.60
2019-03-29T19:15:47.680Z,6.40
2019-03-29T19:18:17.676Z,6.20
2019-03-29T19:20:46.532Z,6.10
2019-03-29T19:23:16.527Z,5.90
2019-03-29T19:25:45.192Z,5.90
2019-03-29T19:28:20.439Z,5.80
2019-03-29T19:30:51.512Z,5.80
2019-03-29T19:33:19.973Z,5.80
2019-03-29T19:35:48.428Z,5.70
2019-03-29T19:38:16.784Z,5.70
2019-03-29T19:40:45.297Z,5.60
2019-03-29T19:43:13.730Z,5.60
2019-03-29T19:45:42.132Z,5.60
2019-03-29T19:48:10.775Z,5.60
2019-03-29T19:50:39.316Z,5.70
2019-03-29T19:53:10.574Z,5.60
2019-03-29T19:55:39.120Z,5.50
2019-03-29T19:58:07.499Z,5.50
2019-03-29T20:00:38.309Z,5.50
2019-03-29T20:03:06.936Z,5.50
2019-03-29T20:05:35.451Z,5.40
2019-03-29T20:08:03.993Z,5.30
2019-03-29T20:10:34.108Z,5.30
2019-03-29T20:13:02.535Z,5.30
2019-03-29T20:15:30.975Z,5.20
2019-03-29T20:17:59.417Z,5.20
2019-03-29T20:20:27.957Z,5.30
2019-03-29T20:22:56.605Z,5.40
2019-03-29T20:25:25.057Z,5.50
2019-03-29T20:27:53.862Z,5.70
2019-03-29T20:30:22.197Z,5.70
2019-03-29T20:32:50.782Z,5.70
2019-03-29T20:35:19.100Z,5.60
2019-03-29T20:37:47.516Z,5.40
2019-03-29T20:40:17.525Z,5.20
2019-03-29T20:42:45.334Z,5.10
2019-03-29T20:45:13.869Z,5.00
2019-03-29T20:47:42.763Z,4.80
2019-03-29T20:50:11.352Z,4.70
2019-03-29T20:52:40.014Z,4.60
2019-03-29T20:55:08.564Z,4.50
2019-03-29T20:57:37.078Z,4.30
2019-03-29T21:00:09.392Z,4.20
2019-03-29T21:02:38.536Z,4.20
2019-03-29T21:05:07.529Z,4.10
2019-03-29T21:07:35.853Z,4.10
2019-03-29T21:10:06.600Z,4.10
2019-03-29T21:12:38.963Z,4.10
2019-03-29T21:15:07.377Z,4.10
2019-03-29T21:17:36.873Z,4.00
2019-03-29T21:20:08.453Z,4.00
2019-03-29T21:22:36.958Z,4.10
2019-03-29T21:25:06.773Z,4.00
2019-03-29T21:27:35.404Z,4.00
2019-03-29T21:30:06.948Z,4.00
2019-03-29T21:32:35.399Z,4.00
2019-03-29T21:35:05.300Z,4.00
2019-03-29T21:37:33.794Z,3.90
2019-03-29T21:40:02.400Z,3.90
2019-03-29T21:42:31.268Z,3.90
2019-03-29T21:44:59.742Z,3.90
2019-03-29T21:47:28.422Z,3.80
2019-03-29T21:49:56.847Z,3.80
2019-03-29T21:52:25.261Z,3.70
2019-03-29T21:54:53.620Z,3.70
2019-03-29T21:57:22.199Z,3.70
2019-03-29T21:59:50.695Z,3.70
2019-03-29T22:02:21.461Z,3.70
2019-03-29T22:04:49.749Z,3.70
2019-03-29T22:07:19.298Z,3.60
2019-03-29T22:09:47.643Z,3.60
2019-03-29T22:12:16.113Z,3.60
2019-03-29T22:14:44.517Z,3.60
2019-03-29T22:17:12.998Z,3.60
2019-03-29T22:19:41.464Z,3.60
2019-03-29T22:22:09.896Z,3.60
2019-03-29T22:24:38.265Z,3.50
2019-03-29T22:27:06.565Z,3.50
2019-03-29T22:29:34.932Z,3.40
2019-03-29T22:32:04.540Z,3.40
2019-03-29T22:34:33.188Z,3.30
2019-03-29T22:37:01.507Z,3.30
2019-03-29T22:39:29.898Z,3.20
2019-03-29T22:41:58.266Z,3.20
2019-03-29T22:44:26.548Z,3.10
2019-03-29T22:46:55.106Z,3.10
2019-03-29T22:49:23.579Z,3.10
2019-03-29T22:51:51.902Z,3.10
2019-03-29T22:54:20.271Z,3.00
2019-03-29T22:56:48.578Z,3.00
2019-03-29T22:59:17.006Z,3.00
2019-03-29T23:01:45.619Z,3.00
2019-03-29T23:04:14.235Z,2.90
2019-03-29T23:06:42.876Z,2.90
2019-03-29T23:09:11.929Z,2.90
2019-03-29T23:11:40.695Z,2.90
2019-03-29T23:14:08.990Z,2.90
2019-03-29T23:16:37.862Z,2.90
2019-03-29T23:19:07.200Z,2.80
2019-03-29T23:21:35.747Z,2.80
2019-03-29T23:24:04.237Z,2.70
2019-03-29T23:26:32.536Z,2.70
2019-03-29T23:29:00.916Z,2.70
2019-03-29T23:31:29.358Z,2.70
2019-03-29T23:33:58.663Z,2.70
2019-03-29T23:36:27.098Z,2.70
2019-03-29T23:38:55.433Z,2.70
2019-03-29T23:41:23.962Z,2.70
2019-03-29T23:43:52.483Z,2.70
2019-03-29T23:46:20.900Z,2.60
2019-03-29T23:48:49.411Z,2.60
2019-03-29T23:51:18.117Z,2.60
2019-03-29T23:53:46.465Z,2.60
2019-03-29T23:56:15.169Z,2.70
2019-03-29T23:58:45.439Z,2.70
